sensor_id;sensor_type;location;lat;lon;timestamp;P1;durP1;ratioP1;P2;durP2;ratioP2
10299;SDS011;5195;48.562;9.192;2022-08-19T00:01:14;28.87;;;26.50;;
10299;SDS011;5195;48.562;9.192;2022-08-19T00:03:41;28.13;;;26.10;;
10299;SDS011;5195;48.562;9.192;2022-08-19T00:06:07;25.23;;;23.30;;
10299;SDS011;5195;48.562;9.192;2022-08-19T00:08:32;27.20;;;25.25;;
10299;SDS011;5195;48.562;9.192;2022-08-19T00:10:58;26.40;;;24.40;;
10299;SDS011;5195;48.562;9.192;2022-08-19T00:13:23;26.00;;;23.90;;
10299;SDS011;5195;48.562;9.192;2022-08-19T00:15:49;23.08;;;21.48;;
10299;SDS011;5195;48.562;9.192;2022-08-19T00:18:14;28.33;;;25.97;;
10299;SDS011;5195;48.562;9.192;2022-08-19T00:20:40;23.70;;;22.00;;
10299;SDS011;5195;48.562;9.192;2022-08-19T00:23:06;26.30;;;24.50;;
10299;SDS011;5195;48.562;9.192;2022-08-19T00:25:31;24.07;;;21.97;;
10299;SDS011;5195;48.562;9.192;2022-08-19T00:27:58;26.50;;;24.50;;
10299;SDS011;5195;48.562;9.192;2022-08-19T00:30:22;24.53;;;22.43;;
10299;SDS011;5195;48.562;9.192;2022-08-19T00:32:48;21.13;;;19.47;;
10299;SDS011;5195;48.562;9.192;2022-08-19T00:35:14;22.67;;;20.87;;
10299;SDS011;5195;48.562;9.192;2022-08-19T00:37:40;25.43;;;23.50;;
10299;SDS011;5195;48.562;9.192;2022-08-19T00:40:06;26.77;;;24.80;;
10299;SDS011;5195;48.562;9.192;2022-08-19T00:42:33;28.02;;;26.02;;
10299;SDS011;5195;48.562;9.192;2022-08-19T00:44:59;28.93;;;26.83;;
10299;SDS011;5195;48.562;9.192;2022-08-19T00:47:24;29.33;;;27.23;;
10299;SDS011;5195;48.562;9.192;2022-08-19T00:49:51;23.53;;;21.83;;
10299;SDS011;5195;48.562;9.192;2022-08-19T00:52:26;27.95;;;25.55;;
10299;SDS011;5195;48.562;9.192;2022-08-19T00:54:51;27.43;;;25.20;;
10299;SDS011;5195;48.562;9.192;2022-08-19T00:57:17;30.50;;;28.12;;
10299;SDS011;5195;48.562;9.192;2022-08-19T00:59:42;31.87;;;29.33;;
10299;SDS011;5195;48.562;9.192;2022-08-19T01:02:07;27.10;;;25.08;;
10299;SDS011;5195;48.562;9.192;2022-08-19T01:04:33;31.47;;;28.97;;
10299;SDS011;5195;48.562;9.192;2022-08-19T01:06:58;23.52;;;21.73;;
10299;SDS011;5195;48.562;9.192;2022-08-19T01:09:24;27.97;;;25.67;;
10299;SDS011;5195;48.562;9.192;2022-08-19T01:11:50;27.87;;;25.75;;
10299;SDS011;5195;48.562;9.192;2022-08-19T01:14:15;26.43;;;24.23;;
10299;SDS011;5195;48.562;9.192;2022-08-19T01:16:42;26.52;;;24.42;;
10299;SDS011;5195;48.562;9.192;2022-08-19T01:19:12;26.57;;;24.37;;
10299;SDS011;5195;48.562;9.192;2022-08-19T01:21:45;20.87;;;19.10;;
10299;SDS011;5195;48.562;9.192;2022-08-19T01:24:09;21.33;;;19.63;;
10299;SDS011;5195;48.562;9.192;2022-08-19T01:26:40;22.40;;;20.57;;
10299;SDS011;5195;48.562;9.192;2022-08-19T01:29:04;25.90;;;23.87;;
10299;SDS011;5195;48.562;9.192;2022-08-19T01:31:30;23.03;;;21.20;;
10299;SDS011;5195;48.562;9.192;2022-08-19T01:33:56;21.47;;;19.60;;
10299;SDS011;5195;48.562;9.192;2022-08-19T01:36:23;25.63;;;23.63;;
10299;SDS011;5195;48.562;9.192;2022-08-19T01:38:47;20.80;;;19.13;;
10299;SDS011;5195;48.562;9.192;2022-08-19T01:41:13;21.03;;;19.40;;
10299;SDS011;5195;48.562;9.192;2022-08-19T01:43:39;21.95;;;20.35;;
10299;SDS011;5195;48.562;9.192;2022-08-19T01:46:04;20.90;;;19.10;;
10299;SDS011;5195;48.562;9.192;2022-08-19T01:48:34;23.80;;;21.90;;
10299;SDS011;5195;48.562;9.192;2022-08-19T01:51:01;21.57;;;19.77;;
10299;SDS011;5195;48.562;9.192;2022-08-19T01:53:27;21.93;;;20.07;;
10299;SDS011;5195;48.562;9.192;2022-08-19T01:55:52;24.57;;;22.57;;
10299;SDS011;5195;48.562;9.192;2022-08-19T01:58:19;23.00;;;21.27;;
10299;SDS011;5195;48.562;9.192;2022-08-19T02:00:43;23.27;;;21.52;;
10299;SDS011;5195;48.562;9.192;2022-08-19T02:03:09;21.07;;;19.20;;
10299;SDS011;5195;48.562;9.192;2022-08-19T02:05:35;21.13;;;19.43;;
10299;SDS011;5195;48.562;9.192;2022-08-19T02:08:01;20.93;;;19.33;;
10299;SDS011;5195;48.562;9.192;2022-08-19T02:10:26;21.60;;;19.80;;
10299;SDS011;5195;48.562;9.192;2022-08-19T02:12:52;22.23;;;20.48;;
10299;SDS011;5195;48.562;9.192;2022-08-19T02:15:18;24.53;;;22.73;;
10299;SDS011;5195;48.562;9.192;2022-08-19T02:17:43;21.83;;;20.13;;
10299;SDS011;5195;48.562;9.192;2022-08-19T02:20:09;22.47;;;20.47;;
10299;SDS011;5195;48.562;9.192;2022-08-19T02:22:34;24.97;;;22.97;;
10299;SDS011;5195;48.562;9.192;2022-08-19T02:25:00;22.47;;;20.63;;
10299;SDS011;5195;48.562;9.192;2022-08-19T02:27:25;22.27;;;20.37;;
10299;SDS011;5195;48.562;9.192;2022-08-19T02:29:51;22.40;;;20.55;;
10299;SDS011;5195;48.562;9.192;2022-08-19T02:32:17;25.23;;;23.33;;
10299;SDS011;5195;48.562;9.192;2022-08-19T02:34:42;26.63;;;24.60;;
10299;SDS011;5195;48.562;9.192;2022-08-19T02:37:08;23.43;;;21.53;;
10299;SDS011;5195;48.562;9.192;2022-08-19T02:39:37;26.57;;;24.57;;
10299;SDS011;5195;48.562;9.192;2022-08-19T02:42:02;24.33;;;21.97;;
10299;SDS011;5195;48.562;9.192;2022-08-19T02:44:28;26.08;;;24.10;;
10299;SDS011;5195;48.562;9.192;2022-08-19T02:46:53;25.03;;;23.13;;
10299;SDS011;5195;48.562;9.192;2022-08-19T02:49:19;26.35;;;24.08;;
10299;SDS011;5195;48.562;9.192;2022-08-19T02:51:45;23.50;;;21.57;;
10299;SDS011;5195;48.562;9.192;2022-08-19T02:54:11;26.87;;;24.67;;
10299;SDS011;5195;48.562;9.192;2022-08-19T02:56:37;26.65;;;24.52;;
10299;SDS011;5195;48.562;9.192;2022-08-19T02:59:02;24.63;;;22.53;;
10299;SDS011;5195;48.562;9.192;2022-08-19T03:01:29;23.45;;;21.55;;
10299;SDS011;5195;48.562;9.192;2022-08-19T03:03:53;22.65;;;20.85;;
10299;SDS011;5195;48.562;9.192;2022-08-19T03:06:19;22.77;;;20.88;;
10299;SDS011;5195;48.562;9.192;2022-08-19T03:08:47;23.57;;;21.57;;
10299;SDS011;5195;48.562;9.192;2022-08-19T03:11:16;23.80;;;21.77;;
10299;SDS011;5195;48.562;9.192;2022-08-19T03:13:40;27.30;;;24.90;;
10299;SDS011;5195;48.562;9.192;2022-08-19T03:16:06;24.23;;;22.33;;
10299;SDS011;5195;48.562;9.192;2022-08-19T03:18:32;24.00;;;22.00;;
10299;SDS011;5195;48.562;9.192;2022-08-19T03:20:58;23.90;;;21.90;;
10299;SDS011;5195;48.562;9.192;2022-08-19T03:23:24;27.00;;;24.90;;
10299;SDS011;5195;48.562;9.192;2022-08-19T03:25:50;24.07;;;22.10;;
10299;SDS011;5195;48.562;9.192;2022-08-19T03:28:16;24.23;;;22.00;;
10299;SDS011;5195;48.562;9.192;2022-08-19T03:30:41;23.70;;;21.70;;
10299;SDS011;5195;48.562;9.192;2022-08-19T03:33:07;29.37;;;26.97;;
10299;SDS011;5195;48.562;9.192;2022-08-19T03:35:32;29.83;;;27.27;;
10299;SDS011;5195;48.562;9.192;2022-08-19T03:37:59;26.70;;;24.33;;
10299;SDS011;5195;48.562;9.192;2022-08-19T03:40:24;26.87;;;24.57;;
10299;SDS011;5195;48.562;9.192;2022-08-19T03:42:50;26.60;;;24.20;;
10299;SDS011;5195;48.562;9.192;2022-08-19T03:45:15;44.13;;;40.07;;
10299;SDS011;5195;48.562;9.192;2022-08-19T03:47:41;35.40;;;32.45;;
10299;SDS011;5195;48.562;9.192;2022-08-19T03:50:06;28.07;;;25.67;;
10299;SDS011;5195;48.562;9.192;2022-08-19T03:52:32;24.23;;;22.23;;
10299;SDS011;5195;48.562;9.192;2022-08-19T03:54:58;26.37;;;24.07;;
10299;SDS011;5195;48.562;9.192;2022-08-19T03:57:23;30.20;;;27.52;;
10299;SDS011;5195;48.562;9.192;2022-08-19T03:59:49;26.02;;;23.85;;
10299;SDS011;5195;48.562;9.192;2022-08-19T04:02:14;30.47;;;27.97;;
10299;SDS011;5195;48.562;9.192;2022-08-19T04:04:41;29.98;;;27.48;;
10299;SDS011;5195;48.562;9.192;2022-08-19T04:07:06;22.85;;;21.23;;
10299;SDS011;5195;48.562;9.192;2022-08-19T04:09:33;26.65;;;24.50;;
10299;SDS011;5195;48.562;9.192;2022-08-19T04:11:57;27.30;;;24.93;;
10299;SDS011;5195;48.562;9.192;2022-08-19T04:14:24;29.67;;;27.27;;
10299;SDS011;5195;48.562;9.192;2022-08-19T04:16:49;25.37;;;23.20;;
10299;SDS011;5195;48.562;9.192;2022-08-19T04:19:14;26.83;;;24.17;;
10299;SDS011;5195;48.562;9.192;2022-08-19T04:21:40;25.10;;;23.13;;
10299;SDS011;5195;48.562;9.192;2022-08-19T04:24:05;25.70;;;23.70;;
10299;SDS011;5195;48.562;9.192;2022-08-19T04:26:33;25.53;;;23.63;;
10299;SDS011;5195;48.562;9.192;2022-08-19T04:29:00;24.80;;;22.73;;
10299;SDS011;5195;48.562;9.192;2022-08-19T04:31:26;24.70;;;22.52;;
10299;SDS011;5195;48.562;9.192;2022-08-19T04:33:58;25.63;;;23.47;;
10299;SDS011;5195;48.562;9.192;2022-08-19T04:36:24;24.40;;;22.40;;
10299;SDS011;5195;48.562;9.192;2022-08-19T04:38:49;29.17;;;26.73;;
10299;SDS011;5195;48.562;9.192;2022-08-19T04:41:14;29.75;;;27.25;;
10299;SDS011;5195;48.562;9.192;2022-08-19T04:43:59;25.17;;;23.07;;
10299;SDS011;5195;48.562;9.192;2022-08-19T04:46:25;26.17;;;24.17;;
10299;SDS011;5195;48.562;9.192;2022-08-19T04:48:51;26.57;;;24.20;;
10299;SDS011;5195;48.562;9.192;2022-08-19T04:51:17;27.23;;;25.02;;
10299;SDS011;5195;48.562;9.192;2022-08-19T04:53:42;26.07;;;23.87;;
10299;SDS011;5195;48.562;9.192;2022-08-19T04:58:38;30.10;;;27.43;;
10299;SDS011;5195;48.562;9.192;2022-08-19T05:01:04;24.50;;;22.30;;
10299;SDS011;5195;48.562;9.192;2022-08-19T05:03:30;27.73;;;25.48;;
10299;SDS011;5195;48.562;9.192;2022-08-19T05:06:06;27.97;;;25.50;;
10299;SDS011;5195;48.562;9.192;2022-08-19T05:08:32;28.00;;;25.47;;
10299;SDS011;5195;48.562;9.192;2022-08-19T05:10:57;27.20;;;24.77;;
10299;SDS011;5195;48.562;9.192;2022-08-19T05:13:24;26.27;;;23.97;;
10299;SDS011;5195;48.562;9.192;2022-08-19T05:15:53;31.65;;;28.85;;
10299;SDS011;5195;48.562;9.192;2022-08-19T05:18:19;26.60;;;24.13;;
10299;SDS011;5195;48.562;9.192;2022-08-19T05:21:08;31.27;;;28.57;;
10299;SDS011;5195;48.562;9.192;2022-08-19T05:23:53;28.27;;;25.50;;
10299;SDS011;5195;48.562;9.192;2022-08-19T05:26:19;27.50;;;25.00;;
10299;SDS011;5195;48.562;9.192;2022-08-19T05:28:45;30.93;;;28.03;;
10299;SDS011;5195;48.562;9.192;2022-08-19T05:31:10;30.17;;;27.55;;
10299;SDS011;5195;48.562;9.192;2022-08-19T05:33:36;27.40;;;24.90;;
10299;SDS011;5195;48.562;9.192;2022-08-19T05:36:02;29.35;;;26.75;;
10299;SDS011;5195;48.562;9.192;2022-08-19T05:38:27;28.20;;;25.50;;
10299;SDS011;5195;48.562;9.192;2022-08-19T05:40:52;31.52;;;28.73;;
10299;SDS011;5195;48.562;9.192;2022-08-19T05:43:18;25.77;;;23.47;;
10299;SDS011;5195;48.562;9.192;2022-08-19T05:45:44;28.70;;;26.30;;
10299;SDS011;5195;48.562;9.192;2022-08-19T05:48:10;30.35;;;27.75;;
10299;SDS011;5195;48.562;9.192;2022-08-19T05:50:37;31.93;;;29.27;;
10299;SDS011;5195;48.562;9.192;2022-08-19T05:53:02;26.20;;;23.93;;
10299;SDS011;5195;48.562;9.192;2022-08-19T05:55:27;32.03;;;29.27;;
10299;SDS011;5195;48.562;9.192;2022-08-19T05:57:53;32.50;;;29.63;;
10299;SDS011;5195;48.562;9.192;2022-08-19T06:00:19;32.43;;;29.53;;
10299;SDS011;5195;48.562;9.192;2022-08-19T06:02:45;32.03;;;29.23;;
10299;SDS011;5195;48.562;9.192;2022-08-19T06:05:12;28.83;;;26.27;;
10299;SDS011;5195;48.562;9.192;2022-08-19T06:07:38;28.00;;;25.50;;
10299;SDS011;5195;48.562;9.192;2022-08-19T06:10:04;31.07;;;28.30;;
10299;SDS011;5195;48.562;9.192;2022-08-19T06:12:30;32.27;;;29.37;;
10299;SDS011;5195;48.562;9.192;2022-08-19T06:14:55;33.25;;;30.35;;
10299;SDS011;5195;48.562;9.192;2022-08-19T06:17:20;30.30;;;27.50;;
10299;SDS011;5195;48.562;9.192;2022-08-19T06:19:46;28.02;;;25.42;;
10299;SDS011;5195;48.562;9.192;2022-08-19T06:22:11;30.03;;;27.23;;
10299;SDS011;5195;48.562;9.192;2022-08-19T06:24:37;32.20;;;29.30;;
10299;SDS011;5195;48.562;9.192;2022-08-19T06:27:02;32.80;;;29.80;;
10299;SDS011;5195;48.562;9.192;2022-08-19T06:29:28;29.33;;;26.53;;
10299;SDS011;5195;48.562;9.192;2022-08-19T06:31:56;29.37;;;26.30;;
10299;SDS011;5195;48.562;9.192;2022-08-19T06:34:21;31.08;;;28.23;;
10299;SDS011;5195;48.562;9.192;2022-08-19T06:36:47;29.63;;;26.73;;
10299;SDS011;5195;48.562;9.192;2022-08-19T06:39:15;33.72;;;30.62;;
10299;SDS011;5195;48.562;9.192;2022-08-19T06:41:42;31.87;;;28.87;;
10299;SDS011;5195;48.562;9.192;2022-08-19T06:44:04;36.53;;;33.20;;
10299;SDS011;5195;48.562;9.192;2022-08-19T06:46:30;31.57;;;28.70;;
10299;SDS011;5195;48.562;9.192;2022-08-19T06:48:56;34.87;;;31.67;;
10299;SDS011;5195;48.562;9.192;2022-08-19T06:51:22;30.80;;;27.70;;
10299;SDS011;5195;48.562;9.192;2022-08-19T06:53:47;30.00;;;27.13;;
10299;SDS011;5195;48.562;9.192;2022-08-19T06:56:21;31.73;;;28.93;;
10299;SDS011;5195;48.562;9.192;2022-08-19T06:58:39;30.47;;;27.67;;
10299;SDS011;5195;48.562;9.192;2022-08-19T07:01:04;36.47;;;33.03;;
10299;SDS011;5195;48.562;9.192;2022-08-19T07:03:32;35.20;;;32.00;;
10299;SDS011;5195;48.562;9.192;2022-08-19T07:05:57;35.08;;;31.77;;
10299;SDS011;5195;48.562;9.192;2022-08-19T07:08:22;32.47;;;29.37;;
10299;SDS011;5195;48.562;9.192;2022-08-19T07:10:48;34.88;;;31.67;;
10299;SDS011;5195;48.562;9.192;2022-08-19T07:13:13;31.60;;;28.43;;
10299;SDS011;5195;48.562;9.192;2022-08-19T07:15:39;33.95;;;30.92;;
10299;SDS011;5195;48.562;9.192;2022-08-19T07:18:04;30.77;;;27.77;;
10299;SDS011;5195;48.562;9.192;2022-08-19T07:20:30;35.60;;;32.10;;
10299;SDS011;5195;48.562;9.192;2022-08-19T07:22:56;31.33;;;28.23;;
10299;SDS011;5195;48.562;9.192;2022-08-19T07:25:21;35.65;;;32.50;;
10299;SDS011;5195;48.562;9.192;2022-08-19T07:27:50;33.17;;;29.73;;
10299;SDS011;5195;48.562;9.192;2022-08-19T07:30:16;35.20;;;32.10;;
10299;SDS011;5195;48.562;9.192;2022-08-19T07:32:42;33.00;;;29.70;;
10299;SDS011;5195;48.562;9.192;2022-08-19T07:35:08;35.73;;;32.47;;
10299;SDS011;5195;48.562;9.192;2022-08-19T07:37:33;29.50;;;26.70;;
10299;SDS011;5195;48.562;9.192;2022-08-19T07:40:00;35.53;;;32.23;;
10299;SDS011;5195;48.562;9.192;2022-08-19T07:42:25;32.70;;;29.50;;
10299;SDS011;5195;48.562;9.192;2022-08-19T07:44:51;36.30;;;33.00;;
10299;SDS011;5195;48.562;9.192;2022-08-19T07:47:16;32.40;;;29.47;;
10299;SDS011;5195;48.562;9.192;2022-08-19T07:49:42;35.20;;;32.00;;
10299;SDS011;5195;48.562;9.192;2022-08-19T07:52:08;29.17;;;26.60;;
10299;SDS011;5195;48.562;9.192;2022-08-19T07:54:35;35.63;;;32.43;;
10299;SDS011;5195;48.562;9.192;2022-08-19T07:56:59;33.40;;;30.00;;
10299;SDS011;5195;48.562;9.192;2022-08-19T07:59:25;38.07;;;34.33;;
10299;SDS011;5195;48.562;9.192;2022-08-19T08:01:50;36.23;;;32.93;;
10299;SDS011;5195;48.562;9.192;2022-08-19T08:04:18;38.57;;;35.07;;
10299;SDS011;5195;48.562;9.192;2022-08-19T08:07:03;30.87;;;27.90;;
10299;SDS011;5195;48.562;9.192;2022-08-19T08:09:48;30.10;;;27.40;;
10299;SDS011;5195;48.562;9.192;2022-08-19T08:12:26;32.77;;;29.87;;
10299;SDS011;5195;48.562;9.192;2022-08-19T08:15:03;34.13;;;31.17;;
10299;SDS011;5195;48.562;9.192;2022-08-19T08:17:35;31.53;;;28.53;;
10299;SDS011;5195;48.562;9.192;2022-08-19T08:20:11;37.37;;;33.83;;
10299;SDS011;5195;48.562;9.192;2022-08-19T08:22:47;38.15;;;34.55;;
10299;SDS011;5195;48.562;9.192;2022-08-19T08:25:42;31.17;;;28.27;;
10299;SDS011;5195;48.562;9.192;2022-08-19T08:28:19;32.67;;;29.43;;
10299;SDS011;5195;48.562;9.192;2022-08-19T08:30:54;31.80;;;29.10;;
10299;SDS011;5195;48.562;9.192;2022-08-19T08:33:30;29.33;;;26.57;;
10299;SDS011;5195;48.562;9.192;2022-08-19T08:36:06;27.93;;;25.27;;
10299;SDS011;5195;48.562;9.192;2022-08-19T08:38:42;33.83;;;30.77;;
10299;SDS011;5195;48.562;9.192;2022-08-19T08:41:40;30.40;;;27.40;;
10299;SDS011;5195;48.562;9.192;2022-08-19T08:44:23;31.90;;;28.90;;
10299;SDS011;5195;48.562;9.192;2022-08-19T08:46:59;33.50;;;30.23;;
10299;SDS011;5195;48.562;9.192;2022-08-19T08:49:36;35.77;;;32.30;;
10299;SDS011;5195;48.562;9.192;2022-08-19T08:54:47;31.27;;;28.17;;
10299;SDS011;5195;48.562;9.192;2022-08-19T08:57:23;29.53;;;26.80;;
10299;SDS011;5195;48.562;9.192;2022-08-19T08:59:58;29.80;;;27.00;;
10299;SDS011;5195;48.562;9.192;2022-08-19T09:02:35;35.67;;;32.38;;
10299;SDS011;5195;48.562;9.192;2022-08-19T09:05:11;33.60;;;30.33;;
10299;SDS011;5195;48.562;9.192;2022-08-19T09:07:53;34.27;;;30.93;;
10299;SDS011;5195;48.562;9.192;2022-08-19T09:10:28;36.80;;;33.50;;
10299;SDS011;5195;48.562;9.192;2022-08-19T09:13:07;33.70;;;30.47;;
10299;SDS011;5195;48.562;9.192;2022-08-19T09:16:02;38.22;;;34.75;;
10299;SDS011;5195;48.562;9.192;2022-08-19T09:18:40;32.03;;;29.07;;
10299;SDS011;5195;48.562;9.192;2022-08-19T09:21:20;33.80;;;30.50;;
10299;SDS011;5195;48.562;9.192;2022-08-19T09:23:54;34.03;;;31.17;;
10299;SDS011;5195;48.562;9.192;2022-08-19T09:26:31;31.55;;;28.95;;
10299;SDS011;5195;48.562;9.192;2022-08-19T09:29:06;30.33;;;27.50;;
10299;SDS011;5195;48.562;9.192;2022-08-19T09:31:42;29.90;;;27.20;;
10299;SDS011;5195;48.562;9.192;2022-08-19T09:34:18;30.53;;;27.73;;
10299;SDS011;5195;48.562;9.192;2022-08-19T09:36:53;33.13;;;30.33;;
10299;SDS011;5195;48.562;9.192;2022-08-19T09:39:29;33.33;;;30.58;;
10299;SDS011;5195;48.562;9.192;2022-08-19T09:42:05;33.13;;;30.07;;
10299;SDS011;5195;48.562;9.192;2022-08-19T09:44:41;38.50;;;35.03;;
10299;SDS011;5195;48.562;9.192;2022-08-19T09:47:18;31.73;;;28.80;;
10299;SDS011;5195;48.562;9.192;2022-08-19T09:49:53;31.60;;;28.57;;
10299;SDS011;5195;48.562;9.192;2022-08-19T09:52:29;33.53;;;30.73;;
10299;SDS011;5195;48.562;9.192;2022-08-19T09:55:06;38.90;;;35.43;;
10299;SDS011;5195;48.562;9.192;2022-08-19T09:57:42;34.27;;;30.97;;
10299;SDS011;5195;48.562;9.192;2022-08-19T10:00:17;40.35;;;36.67;;
10299;SDS011;5195;48.562;9.192;2022-08-19T10:02:53;41.37;;;37.47;;
10299;SDS011;5195;48.562;9.192;2022-08-19T10:05:29;36.80;;;33.50;;
10299;SDS011;5195;48.562;9.192;2022-08-19T10:08:30;36.47;;;32.97;;
10299;SDS011;5195;48.562;9.192;2022-08-19T10:11:04;39.58;;;35.83;;
10299;SDS011;5195;48.562;9.192;2022-08-19T10:13:39;36.40;;;32.87;;
10299;SDS011;5195;48.562;9.192;2022-08-19T10:16:16;34.67;;;31.40;;
10299;SDS011;5195;48.562;9.192;2022-08-19T10:18:51;41.60;;;37.70;;
10299;SDS011;5195;48.562;9.192;2022-08-19T10:21:29;35.97;;;32.80;;
10299;SDS011;5195;48.562;9.192;2022-08-19T10:24:03;40.15;;;36.47;;
10299;SDS011;5195;48.562;9.192;2022-08-19T10:26:39;36.03;;;32.88;;
10299;SDS011;5195;48.562;9.192;2022-08-19T10:29:25;36.17;;;32.77;;
10299;SDS011;5195;48.562;9.192;2022-08-19T10:31:50;31.93;;;28.80;;
10299;SDS011;5195;48.562;9.192;2022-08-19T10:34:16;31.07;;;28.27;;
10299;SDS011;5195;48.562;9.192;2022-08-19T10:36:43;37.63;;;34.33;;
10299;SDS011;5195;48.562;9.192;2022-08-19T10:39:09;34.93;;;31.63;;
10299;SDS011;5195;48.562;9.192;2022-08-19T10:41:37;36.07;;;32.57;;
10299;SDS011;5195;48.562;9.192;2022-08-19T10:44:06;42.10;;;38.10;;
10299;SDS011;5195;48.562;9.192;2022-08-19T10:46:36;44.37;;;40.20;;
10299;SDS011;5195;48.562;9.192;2022-08-19T10:49:00;39.93;;;34.83;;
10299;SDS011;5195;48.562;9.192;2022-08-19T10:51:25;37.93;;;34.03;;
10299;SDS011;5195;48.562;9.192;2022-08-19T10:54:10;37.92;;;34.42;;
10299;SDS011;5195;48.562;9.192;2022-08-19T10:56:36;37.00;;;33.28;;
10299;SDS011;5195;48.562;9.192;2022-08-19T11:01:45;41.17;;;37.30;;
10299;SDS011;5195;48.562;9.192;2022-08-19T11:04:13;41.03;;;37.33;;
10299;SDS011;5195;48.562;9.192;2022-08-19T11:06:40;35.13;;;31.73;;
10299;SDS011;5195;48.562;9.192;2022-08-19T11:09:06;40.90;;;36.87;;
10299;SDS011;5195;48.562;9.192;2022-08-19T11:11:31;38.53;;;34.70;;
10299;SDS011;5195;48.562;9.192;2022-08-19T11:13:58;35.77;;;32.27;;
10299;SDS011;5195;48.562;9.192;2022-08-19T11:16:25;42.77;;;38.77;;
10299;SDS011;5195;48.562;9.192;2022-08-19T11:18:52;37.60;;;33.97;;
10299;SDS011;5195;48.562;9.192;2022-08-19T11:23:43;41.83;;;37.83;;
10299;SDS011;5195;48.562;9.192;2022-08-19T11:26:08;40.27;;;36.17;;
10299;SDS011;5195;48.562;9.192;2022-08-19T11:28:34;37.47;;;33.50;;
10299;SDS011;5195;48.562;9.192;2022-08-19T11:30:59;36.10;;;32.63;;
10299;SDS011;5195;48.562;9.192;2022-08-19T11:33:25;36.47;;;32.63;;
10299;SDS011;5195;48.562;9.192;2022-08-19T11:35:50;41.83;;;37.63;;
10299;SDS011;5195;48.562;9.192;2022-08-19T11:38:16;42.25;;;38.25;;
10299;SDS011;5195;48.562;9.192;2022-08-19T11:40:42;37.83;;;34.23;;
10299;SDS011;5195;48.562;9.192;2022-08-19T11:43:07;43.05;;;38.92;;
10299;SDS011;5195;48.562;9.192;2022-08-19T11:45:33;36.13;;;32.53;;
10299;SDS011;5195;48.562;9.192;2022-08-19T11:47:58;37.73;;;33.73;;
10299;SDS011;5195;48.562;9.192;2022-08-19T11:50:25;38.70;;;34.53;;
10299;SDS011;5195;48.562;9.192;2022-08-19T11:52:55;35.78;;;32.05;;
10299;SDS011;5195;48.562;9.192;2022-08-19T11:55:20;37.23;;;33.53;;
10299;SDS011;5195;48.562;9.192;2022-08-19T11:57:46;35.67;;;32.20;;
10299;SDS011;5195;48.562;9.192;2022-08-19T12:00:12;41.78;;;37.83;;
10299;SDS011;5195;48.562;9.192;2022-08-19T12:02:39;37.37;;;33.67;;
10299;SDS011;5195;48.562;9.192;2022-08-19T12:05:04;39.70;;;36.27;;
10299;SDS011;5195;48.562;9.192;2022-08-19T12:07:31;35.55;;;32.55;;
10299;SDS011;5195;48.562;9.192;2022-08-19T12:09:56;38.53;;;35.05;;
10299;SDS011;5195;48.562;9.192;2022-08-19T12:12:22;41.13;;;37.17;;
10299;SDS011;5195;48.562;9.192;2022-08-19T12:14:48;34.45;;;31.00;;
10299;SDS011;5195;48.562;9.192;2022-08-19T12:17:13;33.87;;;30.67;;
10299;SDS011;5195;48.562;9.192;2022-08-19T12:19:39;36.90;;;33.70;;
10299;SDS011;5195;48.562;9.192;2022-08-19T12:22:05;33.23;;;30.27;;
10299;SDS011;5195;48.562;9.192;2022-08-19T12:24:31;33.63;;;30.43;;
10299;SDS011;5195;48.562;9.192;2022-08-19T12:38:06;35.13;;;31.63;;
10299;SDS011;5195;48.562;9.192;2022-08-19T12:40:33;36.67;;;33.23;;
10299;SDS011;5195;48.562;9.192;2022-08-19T12:42:59;36.73;;;33.40;;
10299;SDS011;5195;48.562;9.192;2022-08-19T12:45:24;37.53;;;34.30;;
10299;SDS011;5195;48.562;9.192;2022-08-19T12:47:50;35.10;;;32.22;;
10299;SDS011;5195;48.562;9.192;2022-08-19T12:50:15;36.07;;;32.97;;
10299;SDS011;5195;48.562;9.192;2022-08-19T12:52:41;38.95;;;35.55;;
10299;SDS011;5195;48.562;9.192;2022-08-19T12:55:07;34.40;;;31.40;;
10299;SDS011;5195;48.562;9.192;2022-08-19T12:57:34;32.63;;;29.63;;
10299;SDS011;5195;48.562;9.192;2022-08-19T13:00:07;31.10;;;28.37;;
10299;SDS011;5195;48.562;9.192;2022-08-19T13:02:31;33.88;;;30.98;;
10299;SDS011;5195;48.562;9.192;2022-08-19T13:04:57;31.57;;;29.07;;
10299;SDS011;5195;48.562;9.192;2022-08-19T13:07:26;35.55;;;32.60;;
10299;SDS011;5195;48.562;9.192;2022-08-19T13:09:52;28.65;;;26.37;;
10299;SDS011;5195;48.562;9.192;2022-08-19T13:12:17;35.03;;;32.13;;
10299;SDS011;5195;48.562;9.192;2022-08-19T13:14:43;29.15;;;26.60;;
10299;SDS011;5195;48.562;9.192;2022-08-19T13:17:08;31.93;;;29.03;;
10299;SDS011;5195;48.562;9.192;2022-08-19T13:19:35;29.77;;;27.10;;
10299;SDS011;5195;48.562;9.192;2022-08-19T13:21:59;37.47;;;34.20;;
10299;SDS011;5195;48.562;9.192;2022-08-19T13:24:25;33.40;;;30.37;;
10299;SDS011;5195;48.562;9.192;2022-08-19T13:26:51;35.93;;;32.93;;
10299;SDS011;5195;48.562;9.192;2022-08-19T13:29:18;35.05;;;32.03;;
10299;SDS011;5195;48.562;9.192;2022-08-19T13:32:04;31.53;;;28.77;;
10299;SDS011;5195;48.562;9.192;2022-08-19T13:34:49;28.67;;;26.27;;
10299;SDS011;5195;48.562;9.192;2022-08-19T13:37:16;35.03;;;32.13;;
10299;SDS011;5195;48.562;9.192;2022-08-19T13:39:44;30.27;;;27.67;;
10299;SDS011;5195;48.562;9.192;2022-08-19T13:42:09;37.55;;;34.20;;
10299;SDS011;5195;48.562;9.192;2022-08-19T13:44:35;33.10;;;30.00;;
10299;SDS011;5195;48.562;9.192;2022-08-19T13:47:02;32.28;;;29.45;;
10299;SDS011;5195;48.562;9.192;2022-08-19T13:49:27;33.73;;;30.43;;
10299;SDS011;5195;48.562;9.192;2022-08-19T13:51:52;36.55;;;33.38;;
10299;SDS011;5195;48.562;9.192;2022-08-19T13:54:17;33.83;;;30.83;;
10299;SDS011;5195;48.562;9.192;2022-08-19T13:56:43;34.03;;;30.67;;
10299;SDS011;5195;48.562;9.192;2022-08-19T13:59:09;30.27;;;27.67;;
10299;SDS011;5195;48.562;9.192;2022-08-19T14:01:34;31.92;;;28.95;;
10299;SDS011;5195;48.562;9.192;2022-08-19T14:04:00;29.07;;;26.60;;
10299;SDS011;5195;48.562;9.192;2022-08-19T14:06:25;32.60;;;30.08;;
10299;SDS011;5195;48.562;9.192;2022-08-19T14:08:52;29.67;;;26.97;;
10299;SDS011;5195;48.562;9.192;2022-08-19T14:11:17;28.70;;;26.20;;
10299;SDS011;5195;48.562;9.192;2022-08-19T14:13:43;31.10;;;28.80;;
10299;SDS011;5195;48.562;9.192;2022-08-19T14:16:09;26.73;;;24.43;;
10299;SDS011;5195;48.562;9.192;2022-08-19T14:18:34;29.93;;;27.63;;
10299;SDS011;5195;48.562;9.192;2022-08-19T14:21:00;34.42;;;31.62;;
10299;SDS011;5195;48.562;9.192;2022-08-19T14:23:25;36.80;;;33.60;;
10299;SDS011;5195;48.562;9.192;2022-08-19T14:25:51;34.00;;;30.93;;
10299;SDS011;5195;48.562;9.192;2022-08-19T14:28:17;33.33;;;30.73;;
10299;SDS011;5195;48.562;9.192;2022-08-19T14:30:42;32.13;;;29.37;;
10299;SDS011;5195;48.562;9.192;2022-08-19T14:33:08;26.65;;;24.30;;
10299;SDS011;5195;48.562;9.192;2022-08-19T14:35:34;24.20;;;22.30;;
10299;SDS011;5195;48.562;9.192;2022-08-19T14:38:00;34.15;;;31.17;;
10299;SDS011;5195;48.562;9.192;2022-08-19T14:40:26;33.07;;;30.27;;
10299;SDS011;5195;48.562;9.192;2022-08-19T14:42:53;32.00;;;29.40;;
10299;SDS011;5195;48.562;9.192;2022-08-19T14:45:19;31.63;;;29.17;;
10299;SDS011;5195;48.562;9.192;2022-08-19T14:47:55;26.57;;;24.33;;
10299;SDS011;5195;48.562;9.192;2022-08-19T14:50:30;34.30;;;31.50;;
10299;SDS011;5195;48.562;9.192;2022-08-19T14:53:07;30.37;;;27.67;;
10299;SDS011;5195;48.562;9.192;2022-08-19T14:55:43;28.50;;;26.33;;
10299;SDS011;5195;48.562;9.192;2022-08-19T14:58:18;26.98;;;24.92;;
10299;SDS011;5195;48.562;9.192;2022-08-19T15:00:54;24.10;;;22.17;;